Time;durP1;ratioP1;P1;durP2;ratioP2;P2;SDS_P1;SDS_P2;PMS_P1;PMS_P2;Temp;Humidity;BMP_temperature;BMP_pressure;BME280_temperature;BME280_humidity;BME280_pressure;Samples;Min_cycle;Max_cycle;Signal;HPM_P1;HPM_P2
2023/08/06 00:00:26;;;;;;;0.82;0.40;;;;;;;15.61;100.00;97612.72;15293428;19;20090;-53
2023/08/06 00:05:53;;;;;;;0.32;0.30;;;;;;;15.52;100.00;97603.97;15285278;19;20043;-56
2023/08/06 00:11:18;;;;;;;0.77;0.50;;;;;;;15.36;100.00;97601.75;15290890;19;20425;-52
2023/08/06 00:16:43;;;;;;;1.50;0.40;;;;;;;15.22;100.00;97598.22;15289620;19;20010;-55
2023/08/06 00:22:10;;;;;;;0.50;0.50;;;;;;;15.10;100.00;97596.16;15292430;19;20027;-53
2023/08/06 00:27:35;;;;;;;0.55;0.40;;;;;;;15.03;100.00;97598.03;15285310;19;20351;-57
2023/08/06 00:33:00;;;;;;;1.67;0.40;;;;;;;14.97;100.00;97584.47;15293196;19;20019;-56
2023/08/06 00:38:27;;;;;;;0.70;0.60;;;;;;;14.94;100.00;97585.75;15285262;19;20440;-55
2023/08/06 00:43:53;;;;;;;0.73;0.35;;;;;;;14.94;100.00;97588.44;15288488;19;20014;-53
2023/08/06 00:49:24;;;;;;;0.95;0.50;;;;;;;14.93;100.00;97587.59;15289039;19;20887;-52
2023/08/06 00:54:54;;;;;;;0.63;0.40;;;;;;;14.93;100.00;97574.03;15283902;19;20049;-51
2023/08/06 01:00:21;;;;;;;1.08;0.60;;;;;;;14.91;100.00;97567.16;15289494;19;20471;-53
2023/08/06 01:05:46;;;;;;;2.28;0.60;;;;;;;14.85;100.00;97558.00;15288419;19;20012;-52
2023/08/06 01:11:26;;;;;;;0.63;0.50;;;;;;;14.78;100.00;97544.44;15282367;19;20021;-53
2023/08/06 01:16:53;;;;;;;0.80;0.50;;;;;;;14.75;100.00;97517.78;15285477;19;20014;-54
2023/08/06 01:22:20;;;;;;;0.77;0.40;;;;;;;14.76;100.00;97532.97;15288932;19;20411;-52
2023/08/06 01:27:49;;;;;;;0.98;0.60;;;;;;;14.80;100.00;97538.81;15277150;19;20566;-54
2023/08/06 01:33:14;;;;;;;0.73;0.50;;;;;;;14.76;100.00;97532.97;15287829;19;20034;-57
2023/08/06 01:38:41;;;;;;;0.85;0.40;;;;;;;14.79;100.00;97542.59;15284523;19;20021;-53
2023/08/06 01:44:06;;;;;;;1.15;0.50;;;;;;;14.78;100.00;97539.03;15283493;19;20014;-57
2023/08/06 01:49:37;;;;;;;0.90;0.50;;;;;;;14.84;100.00;97533.81;15283882;19;20011;-56
2023/08/06 01:55:06;;;;;;;0.50;0.50;;;;;;;14.86;100.00;97529.00;15281206;19;20476;-56
2023/08/06 02:00:31;;;;;;;1.30;0.55;;;;;;;14.88;100.00;97526.91;15279038;19;20019;-56
2023/08/06 02:05:56;;;;;;;0.43;0.40;;;;;;;14.88;100.00;97524.19;15282396;19;20025;-54
2023/08/06 02:11:23;;;;;;;0.55;0.50;;;;;;;14.87;100.00;97522.56;15284141;19;20073;-52
2023/08/06 02:16:48;;;;;;;0.68;0.50;;;;;;;14.87;100.00;97506.28;15273182;19;20161;-53
2023/08/06 02:22:14;;;;;;;2.28;0.40;;;;;;;14.84;100.00;97509.41;15283503;19;20017;-52
2023/08/06 02:27:42;;;;;;;0.65;0.40;;;;;;;14.82;100.00;97512.31;15283916;19;20017;-55
2023/08/06 02:33:07;;;;;;;0.50;0.50;;;;;;;14.77;100.00;97504.81;15276701;19;20338;-57
2023/08/06 02:38:32;;;;;;;0.57;0.40;;;;;;;14.76;100.00;97497.72;15284291;19;20014;-56
2023/08/06 02:43:59;;;;;;;0.85;0.50;;;;;;;14.75;100.00;97501.50;15282396;19;20082;-55
2023/08/06 02:49:24;;;;;;;0.40;0.40;;;;;;;14.75;100.00;97506.06;15273763;19;20015;-52
2023/08/06 02:54:49;;;;;;;0.50;0.50;;;;;;;14.70;100.00;97517.56;15281489;19;20015;-53
2023/08/06 03:00:19;;;;;;;1.67;0.60;;;;;;;14.68;100.00;97508.78;15279792;19;20021;-52
2023/08/06 03:05:45;;;;;;;0.65;0.50;;;;;;;14.62;100.00;97518.56;15284203;19;20010;-53
2023/08/06 03:11:30;;;;;;;2.30;0.65;;;;;;;14.55;100.00;97520.47;15290955;19;20007;-52
2023/08/06 03:17:00;;;;;;;1.38;0.60;;;;;;;14.51;100.00;97521.09;15291746;19;20026;-54
2023/08/06 03:22:25;;;;;;;1.17;0.77;;;;;;;14.44;100.00;97526.50;15290464;19;20044;-53
2023/08/06 03:27:50;;;;;;;0.57;0.50;;;;;;;14.38;100.00;97522.75;15295585;19;20057;-56
2023/08/06 03:33:18;;;;;;;1.20;0.55;;;;;;;14.35;100.00;97527.75;15296078;19;20424;-55
2023/08/06 03:38:45;;;;;;;0.88;0.60;;;;;;;14.31;100.00;97524.59;15288462;19;20007;-56
2023/08/06 03:44:11;;;;;;;0.65;0.50;;;;;;;14.29;100.00;97537.53;15292313;19;20089;-55
2023/08/06 03:49:45;;;;;;;2.30;0.60;;;;;;;14.27;100.00;97542.34;15290248;19;20010;-56
2023/08/06 03:55:11;;;;;;;0.95;0.55;;;;;;;14.23;100.00;97532.94;15289741;19;20035;-54
2023/08/06 04:00:36;;;;;;;1.88;0.60;;;;;;;14.21;100.00;97532.31;15291352;19;20022;-53
2023/08/06 04:06:05;;;;;;;0.50;0.50;;;;;;;14.21;100.00;97529.59;15290519;19;20031;-53
2023/08/06 04:11:29;;;;;;;0.50;0.50;;;;;;;14.17;100.00;97516.47;15280763;19;20079;-54
2023/08/06 04:16:54;;;;;;;1.50;0.50;;;;;;;14.18;100.00;97518.13;15289470;19;20014;-51
2023/08/06 04:22:21;;;;;;;2.97;0.60;;;;;;;14.20;100.00;97507.13;15290339;19;20086;-56
2023/08/06 04:27:46;;;;;;;1.10;0.50;;;;;;;14.20;100.00;97493.56;15289516;19;20030;-50
2023/08/06 04:33:11;;;;;;;0.93;0.50;;;;;;;14.21;100.00;97497.09;15289299;19;20022;-56
2023/08/06 04:38:41;;;;;;;1.20;0.55;;;;;;;14.20;100.00;97500.84;15290657;19;20010;-55
2023/08/06 04:44:06;;;;;;;1.50;0.63;;;;;;;14.18;100.00;97496.47;15281692;19;20035;-57
2023/08/06 04:49:32;;;;;;;1.15;0.73;;;;;;;14.15;100.00;97502.31;15288829;19;20026;-53
2023/08/06 04:54:59;;;;;;;1.33;0.60;;;;;;;14.11;100.00;97522.72;15285955;19;20090;-50
2023/08/06 05:00:24;;;;;;;0.52;0.52;;;;;;;14.07;100.00;97518.75;15290429;19;20014;-52
2023/08/06 05:05:43;;;;;;;2.42;0.70;;;;;;;14.07;100.00;97523.34;15288742;19;20345;-55
2023/08/06 05:11:10;;;;;;;2.17;0.63;;;;;;;14.08;100.00;97517.72;15285474;19;20028;-53
2023/08/06 05:16:35;;;;;;;1.02;0.80;;;;;;;14.09;100.00;97545.66;15281206;19;20021;-50
2023/08/06 05:22:00;;;;;;;1.38;0.90;;;;;;;14.07;100.00;97553.97;15288456;19;20018;-53
2023/08/06 05:27:28;;;;;;;0.68;0.68;;;;;;;14.08;100.00;97555.63;15278681;19;20033;-55
2023/08/06 05:32:53;;;;;;;1.55;0.77;;;;;;;14.09;100.00;97551.06;15289750;19;20319;-54
2023/08/06 05:38:19;;;;;;;2.00;0.70;;;;;;;14.11;100.00;97532.75;15288119;19;20010;-50
2023/08/06 05:43:46;;;;;;;0.80;0.80;;;;;;;14.13;100.00;97526.06;15286978;19;20027;-55
2023/08/06 05:49:17;;;;;;;1.50;0.70;;;;;;;14.12;100.00;97524.41;15281180;19;20018;-57
2023/08/06 05:54:48;;;;;;;2.00;0.70;;;;;;;14.16;100.00;97508.56;15287321;19;20019;-54
2023/08/06 06:00:16;;;;;;;1.20;0.80;;;;;;;14.16;100.00;97509.41;15283170;19;20837;-55
2023/08/06 06:05:41;;;;;;;2.33;1.00;;;;;;;14.23;100.00;97519.41;15282428;19;20006;-55
2023/08/06 06:11:06;;;;;;;3.70;0.80;;;;;;;14.27;100.00;97520.66;15282710;19;20035;-54
2023/08/06 06:16:33;;;;;;;2.30;0.80;;;;;;;14.27;100.00;97518.78;15281171;19;20090;-53
2023/08/06 06:21:59;;;;;;;1.13;0.90;;;;;;;14.37;100.00;97515.66;15281121;19;20018;-54
2023/08/06 06:27:23;;;;;;;3.30;0.90;;;;;;;14.43;100.00;97517.53;15281310;19;20010;-52
2023/08/06 06:32:51;;;;;;;1.48;0.90;;;;;;;14.54;100.00;97501.69;15278305;19;20018;-55
2023/08/06 06:38:15;;;;;;;1.80;0.88;;;;;;;14.59;100.00;97494.59;15289238;19;20081;-51
2023/08/06 06:43:40;;;;;;;1.25;0.90;;;;;;;14.68;100.00;97486.28;15300810;19;20029;-52
2023/08/06 06:49:08;;;;;;;1.20;0.88;;;;;;;14.74;100.00;97486.28;15294359;19;20812;-52
2023/08/06 06:54:33;;;;;;;2.60;0.98;;;;;;;14.82;100.00;97468.94;15298095;19;20115;-56
2023/08/06 06:59:57;;;;;;;1.67;0.75;;;;;;;14.90;100.00;97476.00;15299421;19;20006;-51
2023/08/06 07:05:27;;;;;;;1.55;0.70;;;;;;;15.01;100.00;97472.63;15287278;19;20024;-54
2023/08/06 07:10:52;;;;;;;0.90;0.80;;;;;;;15.05;100.00;97459.50;15294402;19;20787;-53
2023/08/06 07:16:17;;;;;;;1.17;0.80;;;;;;;15.13;100.00;97447.56;15296127;19;20014;-54
2023/08/06 07:21:44;;;;;;;1.85;0.77;;;;;;;15.20;100.00;97434.81;15294271;19;20082;-55
2023/08/06 07:27:10;;;;;;;1.65;0.70;;;;;;;15.28;100.00;97422.88;15295365;19;20011;-51
2023/08/06 07:32:35;;;;;;;0.80;0.68;;;;;;;15.37;100.00;97414.25;15295441;19;20018;-54
2023/08/06 07:38:03;;;;;;;1.20;0.60;;;;;;;15.43;100.00;97406.31;15297179;19;20090;-53
2023/08/06 07:43:27;;;;;;;2.22;0.80;;;;;;;15.50;100.00;97390.81;15298308;19;20025;-54
2023/08/06 07:48:59;;;;;;;1.38;0.70;;;;;;;15.58;100.00;97396.00;15296814;19;20021;-51
2023/08/06 07:54:28;;;;;;;1.30;0.75;;;;;;;15.64;100.00;97391.56;15290804;19;20017;-51
2023/08/06 07:59:53;;;;;;;1.00;0.80;;;;;;;15.75;100.00;97388.16;15296608;19;20611;-54
2023/08/06 08:05:22;;;;;;;0.80;0.70;;;;;;;15.85;100.00;97374.09;15295578;19;20010;-53
2023/08/06 08:10:49;;;;;;;0.70;0.68;;;;;;;15.84;100.00;97350.66;15287324;19;20102;-54
2023/08/06 08:16:14;;;;;;;0.77;0.75;;;;;;;15.93;100.00;97349.41;15291940;19;20010;-54
2023/08/06 08:21:38;;;;;;;2.47;0.90;;;;;;;16.05;100.00;97354.91;15294442;19;20015;-62
2023/08/06 08:27:06;;;;;;;0.90;0.70;;;;;;;16.12;100.00;97341.28;15284597;19;20343;-63
2023/08/06 08:32:30;;;;;;;2.17;0.80;;;;;;;16.23;100.00;97342.44;15289524;19;20022;-63
2023/08/06 08:37:55;;;;;;;1.55;0.80;;;;;;;16.36;100.00;97338.75;15305129;19;20112;-63
2023/08/06 08:43:23;;;;;;;1.35;0.90;;;;;;;16.48;100.00;97316.00;15287928;19;21030;-61
2023/08/06 08:48:49;;;;;;;0.80;0.80;;;;;;;16.64;100.00;97316.47;15291877;19;20082;-62
2023/08/06 08:54:16;;;;;;;1.17;0.70;;;;;;;16.82;100.00;97306.63;15289532;19;20014;-62
2023/08/06 08:59:44;;;;;;;1.23;0.75;;;;;;;16.98;100.00;97306.00;15285036;19;20025;-63
2023/08/06 09:05:09;;;;;;;1.30;0.70;;;;;;;17.06;100.00;97274.94;15289387;19;20026;-62
2023/08/06 09:10:36;;;;;;;1.88;0.80;;;;;;;17.17;100.00;97276.88;15288416;19;20022;-63
2023/08/06 09:16:03;;;;;;;1.42;0.73;;;;;;;17.27;100.00;97275.47;15284899;19;20070;-63
2023/08/06 09:21:31;;;;;;;1.40;0.73;;;;;;;17.39;100.00;97269.00;15289046;19;20488;-63
2023/08/06 09:26:55;;;;;;;1.05;0.60;;;;;;;17.57;100.00;97261.78;15285862;19;20029;-63
2023/08/06 09:32:23;;;;;;;1.38;0.70;;;;;;;17.71;100.00;97263.22;15279692;19;20090;-61
2023/08/06 09:37:51;;;;;;;;;;;;;;;17.85;100.00;97247.47;15282064;19;20022;-62
2023/08/06 09:43:16;;;;;;;1.45;0.65;;;;;;;18.04;100.00;97241.09;15278290;19;20254;-62
2023/08/06 09:48:43;;;;;;;0.65;0.60;;;;;;;18.08;100.00;97243.09;15269179;19;20074;-64
2023/08/06 09:54:12;;;;;;;0.70;0.70;;;;;;;18.12;100.00;97244.28;15271396;19;20014;-62
2023/08/06 09:59:47;;;;;;;1.33;0.70;;;;;;;18.27;100.00;97229.34;15275056;19;20014;-60
2023/08/06 10:05:15;;;;;;;0.57;0.50;;;;;;;18.39;100.00;97221.97;15268280;19;20018;-63
2023/08/06 10:10:40;;;;;;;1.27;0.60;;;;;;;18.51;100.00;97208.28;15268828;19;20017;-64
2023/08/06 10:16:07;;;;;;;0.60;0.57;;;;;;;18.64;100.00;97186.16;15273968;19;20369;-62
2023/08/06 10:21:35;;;;;;;0.60;0.60;;;;;;;18.83;100.00;97185.13;15269689;19;20085;-62
2023/08/06 10:27:01;;;;;;;0.77;0.60;;;;;;;18.97;100.00;97186.53;15267474;19;20028;-62
2023/08/06 10:32:25;;;;;;;0.60;0.60;;;;;;;19.16;100.00;97175.38;15268303;19;20476;-62
2023/08/06 10:37:53;;;;;;;0.50;0.50;;;;;;;19.28;100.00;97157.00;15262293;19;20022;-64
2023/08/06 10:43:34;;;;;;;0.50;0.50;;;;;;;19.33;100.00;97146.16;15271923;19;20295;-54
2023/08/06 10:49:07;;;;;;;0.63;0.50;;;;;;;19.39;100.00;97139.69;15268010;19;20706;-57
2023/08/06 10:54:36;;;;;;;0.73;0.50;;;;;;;19.62;100.00;97124.19;15262611;19;20026;-54
2023/08/06 11:00:00;;;;;;;0.43;0.43;;;;;;;19.74;100.00;97115.88;15262502;19;20039;-54
2023/08/06 11:05:34;;;;;;;0.70;0.40;;;;;;;19.83;100.00;97108.91;15267751;19;20026;-55
2023/08/06 11:11:01;;;;;;;1.95;0.50;;;;;;;19.97;100.00;97103.91;15262842;19;20018;-56
2023/08/06 11:16:27;;;;;;;1.02;0.43;;;;;;;20.01;100.00;97102.31;15267555;19;20014;-56
2023/08/06 11:21:52;;;;;;;0.82;0.40;;;;;;;20.08;100.00;97101.28;15271120;19;20097;-56
2023/08/06 11:27:20;;;;;;;1.42;0.50;;;;;;;20.02;100.00;97093.03;15278338;19;20024;-57
2023/08/06 11:32:53;;;;;;;0.73;0.60;;;;;;;19.73;100.00;97107.91;15278255;19;20015;-58
2023/08/06 11:38:19;;;;;;;1.35;0.60;;;;;;;19.43;100.00;97103.69;15284441;19;20077;-59
2023/08/06 11:43:46;;;;;;;0.68;0.50;;;;;;;19.34;100.00;97098.69;15281523;19;20017;-51
2023/08/06 11:49:11;;;;;;;0.85;0.60;;;;;;;19.36;100.00;97093.75;15280723;19;20021;-52
2023/08/06 11:54:40;;;;;;;0.70;0.50;;;;;;;19.60;100.00;97079.88;15282533;19;20031;-52
2023/08/06 12:00:10;;;;;;;0.40;0.40;;;;;;;19.82;100.00;97079.91;15284638;19;20017;-55
2023/08/06 12:05:40;;;;;;;0.40;0.40;;;;;;;20.12;100.00;97077.81;15272458;19;20467;-55
2023/08/06 12:11:06;;;;;;;1.73;0.50;;;;;;;20.44;100.00;97063.38;15282911;19;20010;-53
2023/08/06 12:16:33;;;;;;;0.40;0.40;;;;;;;20.59;100.00;97057.22;15289342;19;20051;-58
2023/08/06 12:21:58;;;;;;;1.83;0.40;;;;;;;20.58;100.00;97055.59;15284458;19;20598;-56
2023/08/06 12:27:24;;;;;;;0.50;0.50;;;;;;;20.45;100.00;97065.88;15278492;19;20500;-57
2023/08/06 12:32:52;;;;;;;0.90;0.43;;;;;;;20.42;100.00;97060.91;15279001;19;20014;-56
2023/08/06 12:38:16;;;;;;;0.40;0.40;;;;;;;20.57;100.00;97062.97;15273261;19;20094;-52
2023/08/06 12:43:41;;;;;;;3.53;0.60;;;;;;;20.58;100.00;97047.41;15281676;19;20010;-57
2023/08/06 12:49:09;;;;;;;0.68;0.50;;;;;;;20.60;100.00;97042.47;15273189;19;20026;-52
2023/08/06 12:54:36;;;;;;;1.35;0.60;;;;;;;20.76;100.00;97044.28;15278560;19;20021;-58
2023/08/06 13:00:00;;;;;;;0.55;0.50;;;;;;;20.57;100.00;97043.81;15278477;19;20383;-50
2023/08/06 13:05:28;;;;;;;1.88;0.70;;;;;;;20.44;100.00;97055.19;15279322;19;20011;-52
2023/08/06 13:10:52;;;;;;;3.35;0.73;;;;;;;20.00;100.00;97070.59;15275546;19;20094;-62
2023/08/06 13:16:17;;;;;;;6.80;1.30;;;;;;;19.16;100.00;97093.47;15275995;19;20081;-56
2023/08/06 13:22:09;;;;;;;2.60;0.85;;;;;;;19.00;100.00;97095.94;15278177;19;20015;-62
2023/08/06 13:27:34;;;;;;;2.08;1.17;;;;;;;18.74;100.00;97113.78;15276892;19;20241;-63
2023/08/06 13:33:00;;;;;;;1.52;0.70;;;;;;;18.66;100.00;97109.53;15274988;19;20014;-59
2023/08/06 13:38:27;;;;;;;1.48;0.73;;;;;;;18.73;100.00;97101.19;15273563;19;20010;-60
2023/08/06 13:43:52;;;;;;;1.50;0.80;;;;;;;18.94;100.00;97102.41;15273515;19;20515;-63
2023/08/06 13:49:24;;;;;;;0.50;0.45;;;;;;;19.13;100.00;97088.50;15268506;19;20010;-60
2023/08/06 13:54:51;;;;;;;1.02;0.80;;;;;;;19.56;100.00;97119.75;15274248;19;20487;-59
2023/08/06 14:00:18;;;;;;;0.75;0.63;;;;;;;19.95;100.00;97111.53;15276608;19;20014;-58
2023/08/06 14:05:44;;;;;;;1.00;0.70;;;;;;;20.37;100.00;97110.09;15272193;19;20090;-61
2023/08/06 14:11:12;;;;;;;0.60;0.50;;;;;;;20.48;100.00;97087.22;15273992;19;20018;-58
2023/08/06 14:16:36;;;;;;;0.63;0.50;;;;;;;20.35;100.00;97070.41;15264808;19;20022;-58
2023/08/06 14:22:01;;;;;;;1.45;0.95;;;;;;;20.17;100.00;97070.50;15267158;19;20014;-58
2023/08/06 14:27:28;;;;;;;3.65;0.80;;;;;;;19.79;100.00;97079.59;15267795;19;20696;-58
2023/08/06 14:32:53;;;;;;;1.00;0.60;;;;;;;19.21;100.00;97094.38;15268233;19;20018;-57
2023/08/06 14:38:34;;;;;;;0.88;0.68;;;;;;;18.81;100.00;97103.53;15272175;19;20099;-59
2023/08/06 14:44:19;;;;;;;1.90;0.90;;;;;;;18.61;100.00;97091.19;15270819;19;20015;-54
2023/08/06 14:49:44;;;;;;;1.27;1.10;;;;;;;18.45;100.00;97098.28;15265527;19;20018;-59
2023/08/06 14:55:10;;;;;;;1.08;0.70;;;;;;;18.35;100.00;97102.69;15261323;19;20021;-59
2023/08/06 15:00:37;;;;;;;1.23;0.60;;;;;;;18.09;100.00;97113.94;15286011;19;20017;-59
2023/08/06 15:06:03;;;;;;;0.63;0.60;;;;;;;18.00;100.00;97118.13;15290322;19;20090;-55
2023/08/06 15:11:27;;;;;;;1.08;0.80;;;;;;;17.92;100.00;97132.94;15293985;19;20015;-57
2023/08/06 15:16:58;;;;;;;1.17;1.00;;;;;;;17.88;100.00;97137.19;15283182;19;20103;-51
2023/08/06 15:22:23;;;;;;;1.75;0.80;;;;;;;17.96;100.00;97136.00;15291317;19;20025;-56
2023/08/06 15:27:49;;;;;;;1.58;0.70;;;;;;;18.07;100.00;97124.25;15283870;19;20025;-57
2023/08/06 15:33:16;;;;;;;2.17;0.60;;;;;;;18.68;100.00;97110.13;15291885;19;20025;-54
2023/08/06 15:38:41;;;;;;;2.10;0.68;;;;;;;19.21;100.00;97097.09;15289862;19;20090;-56
2023/08/06 15:44:06;;;;;;;1.75;0.40;;;;;;;19.48;100.00;97088.22;15291345;19;20028;-56
2023/08/06 15:49:34;;;;;;;0.45;0.40;;;;;;;20.14;100.00;97092.06;15291619;19;20078;-52
2023/08/06 15:55:03;;;;;;;0.98;0.50;;;;;;;19.95;100.00;97086.09;15289962;19;20025;-57
2023/08/06 16:00:28;;;;;;;2.00;0.65;;;;;;;19.59;100.00;97089.16;15289691;19;20082;-56
2023/08/06 16:05:55;;;;;;;1.58;0.60;;;;;;;19.14;100.00;97101.06;15286479;19;20024;-55
2023/08/06 16:11:20;;;;;;;1.38;0.50;;;;;;;18.79;100.00;97122.06;15290721;19;20028;-58
2023/08/06 16:16:45;;;;;;;0.88;0.50;;;;;;;18.39;100.00;97132.00;15285871;19;20082;-56
2023/08/06 16:22:13;;;;;;;1.40;0.60;;;;;;;18.07;100.00;97142.53;15291126;19;20491;-58
2023/08/06 16:27:37;;;;;;;1.02;0.50;;;;;;;17.66;100.00;97147.91;15290821;19;20018;-57
2023/08/06 16:33:03;;;;;;;0.80;0.40;;;;;;;17.40;100.00;97136.41;15282886;19;20014;-57
2023/08/06 16:38:30;;;;;;;0.93;0.38;;;;;;;17.13;100.00;97166.81;15288790;19;20041;-55
2023/08/06 16:43:55;;;;;;;0.55;0.38;;;;;;;16.99;100.00;97187.16;15288268;19;20029;-59
2023/08/06 16:49:20;;;;;;;1.30;0.40;;;;;;;16.66;100.00;97205.59;15262564;19;20010;-59
2023/08/06 16:54:48;;;;;;;1.27;0.40;;;;;;;16.23;100.00;97204.66;15285953;19;20061;-58
2023/08/06 17:00:15;;;;;;;0.77;0.30;;;;;;;15.82;100.00;97211.56;15289969;19;20018;-57
2023/08/06 17:05:39;;;;;;;1.00;0.38;;;;;;;15.64;100.00;97194.22;15279889;19;20716;-53
2023/08/06 17:11:06;;;;;;;12.65;1.25;;;;;;;15.17;100.00;97237.19;15288511;19;20203;-53
2023/08/06 17:16:31;;;;;;;5.13;1.00;;;;;;;14.74;100.00;97266.69;15279424;19;20014;-54
2023/08/06 17:21:55;;;;;;;3.45;1.20;;;;;;;14.61;100.00;97304.66;15290298;19;20673;-56
2023/08/06 17:27:23;;;;;;;2.17;0.90;;;;;;;14.56;100.00;97342.41;15281586;19;20022;-57
2023/08/06 17:32:48;;;;;;;2.28;0.60;;;;;;;14.40;100.00;97384.34;15287947;19;20027;-59
2023/08/06 17:38:13;;;;;;;3.30;0.50;;;;;;;14.32;100.00;97397.09;15283106;19;20018;-56
2023/08/06 17:43:40;;;;;;;0.75;0.50;;;;;;;14.29;100.00;97402.06;15286679;19;20018;-60
2023/08/06 17:49:05;;;;;;;1.02;0.38;;;;;;;14.28;100.00;97414.78;15283278;19;20078;-59
2023/08/06 17:54:29;;;;;;;2.78;0.50;;;;;;;14.33;100.00;97416.88;15282595;19;20361;-55
2023/08/06 17:59:57;;;;;;;0.70;0.50;;;;;;;14.38;100.00;97436.06;15280247;19;20012;-58
2023/08/06 18:05:31;;;;;;;0.57;0.35;;;;;;;14.45;100.00;97458.53;15282799;19;20657;-57
2023/08/06 18:10:55;;;;;;;2.13;0.40;;;;;;;14.49;100.00;97465.22;15282048;19;20010;-59
2023/08/06 18:16:22;;;;;;;0.47;0.32;;;;;;;14.52;100.00;97476.69;15282117;19;20086;-60
2023/08/06 18:21:47;;;;;;;0.65;0.40;;;;;;;14.48;100.00;97498.78;15287719;19;20402;-58
2023/08/06 18:27:16;;;;;;;1.20;0.80;;;;;;;14.46;100.00;97527.13;15280640;19;20019;-57
2023/08/06 18:32:44;;;;;;;1.15;0.50;;;;;;;14.43;100.00;97541.09;15284042;19;20082;-59
2023/08/06 18:38:12;;;;;;;0.40;0.40;;;;;;;14.35;100.00;97539.41;15299603;19;20214;-57
2023/08/06 18:43:37;;;;;;;1.45;0.68;;;;;;;14.27;100.00;97543.16;15292488;19;20022;-58
2023/08/06 18:49:04;;;;;;;1.25;0.50;;;;;;;14.18;100.00;97498.34;15299059;19;20383;-57
2023/08/06 18:54:29;;;;;;;0.77;0.50;;;;;;;14.07;100.00;97494.38;15299049;19;20014;-58
2023/08/06 18:59:53;;;;;;;1.52;0.60;;;;;;;14.00;100.00;97524.16;15299884;19;20027;-58
2023/08/06 19:05:21;;;;;;;1.52;0.70;;;;;;;13.93;100.00;97541.44;15292057;19;20014;-60
2023/08/06 19:10:45;;;;;;;1.52;0.68;;;;;;;13.89;100.00;97568.06;15296522;19;20469;-60
2023/08/06 19:16:10;;;;;;;0.75;0.50;;;;;;;13.86;100.00;97593.69;15292359;19;20034;-58
2023/08/06 19:21:37;;;;;;;0.98;0.60;;;;;;;13.83;100.00;97604.91;15295156;19;20408;-59
2023/08/06 19:27:05;;;;;;;1.53;0.80;;;;;;;13.78;100.00;97609.28;15293064;19;20486;-61
2023/08/06 19:32:30;;;;;;;0.93;0.50;;;;;;;13.75;100.00;97609.69;15300160;19;20011;-55
2023/08/06 19:37:58;;;;;;;1.00;0.52;;;;;;;13.71;100.00;97598.41;15293553;19;20082;-61
2023/08/06 19:43:22;;;;;;;1.45;0.57;;;;;;;13.67;100.00;97586.34;15288928;19;20031;-59
2023/08/06 19:48:47;;;;;;;1.42;0.60;;;;;;;13.65;100.00;97594.63;15294393;19;20024;-57
2023/08/06 19:54:15;;;;;;;1.73;0.70;;;;;;;13.63;100.00;97593.19;15294168;19;20029;-58
2023/08/06 19:59:40;;;;;;;1.58;0.60;;;;;;;13.64;100.00;97605.69;15295732;19;20017;-58
2023/08/06 20:05:05;;;;;;;1.08;0.73;;;;;;;13.63;100.00;97612.13;15293859;19;20347;-56
2023/08/06 20:10:32;;;;;;;2.30;0.98;;;;;;;13.66;100.00;97617.16;15288725;19;20010;-57
2023/08/06 20:15:57;;;;;;;1.98;1.00;;;;;;;13.62;100.00;97632.09;15281793;19;20018;-56
2023/08/06 20:21:21;;;;;;;1.65;0.90;;;;;;;13.62;100.00;97635.66;15295131;19;20011;-59
2023/08/06 20:26:48;;;;;;;1.38;0.80;;;;;;;13.64;100.00;97640.88;15290034;19;20027;-57
2023/08/06 20:32:14;;;;;;;1.60;0.90;;;;;;;13.63;100.00;97648.16;15294146;19;20090;-57
2023/08/06 20:37:38;;;;;;;2.08;0.90;;;;;;;13.64;100.00;97660.63;15291870;19;20024;-59
2023/08/06 20:43:06;;;;;;;0.80;0.80;;;;;;;13.65;100.00;97664.19;15287557;19;20014;-55
2023/08/06 20:48:31;;;;;;;1.17;0.93;;;;;;;13.64;100.00;97666.03;15283760;19;20025;-59
2023/08/06 20:54:02;;;;;;;1.63;0.90;;;;;;;13.65;100.00;97664.19;15268177;19;20021;-60
2023/08/06 20:59:29;;;;;;;1.15;0.80;;;;;;;13.66;100.00;97680.22;15287669;19;20031;-56
2023/08/06 21:04:54;;;;;;;0.95;0.70;;;;;;;13.65;100.00;97681.25;15290293;19;20020;-56
2023/08/06 21:10:19;;;;;;;2.28;0.90;;;;;;;13.67;100.00;97689.19;15291346;19;20101;-55
2023/08/06 21:15:46;;;;;;;1.88;0.85;;;;;;;13.65;100.00;97692.06;15283315;19;20025;-58
2023/08/06 21:21:11;;;;;;;0.70;0.70;;;;;;;13.65;100.00;97699.38;15285158;19;20026;-57
2023/08/06 21:26:36;;;;;;;1.42;0.77;;;;;;;13.64;100.00;97701.22;15285542;19;20344;-54
2023/08/06 21:32:03;;;;;;;1.80;0.80;;;;;;;13.63;100.00;97714.97;15290262;19;20417;-54
2023/08/06 21:37:22;;;;;;;1.15;0.93;;;;;;;13.63;100.00;97717.69;15285236;19;20531;-53
2023/08/06 21:42:46;;;;;;;0.90;0.60;;;;;;;13.61;100.00;97725.16;15290446;19;20010;-53
2023/08/06 21:48:13;;;;;;;1.50;0.50;;;;;;;13.58;100.00;97718.28;15277129;19;20021;-54
2023/08/06 21:53:39;;;;;;;0.52;0.52;;;;;;;13.55;100.00;97707.84;15275742;19;20022;-53
2023/08/06 21:59:03;;;;;;;0.85;0.60;;;;;;;13.50;100.00;97705.72;15287295;19;20082;-56
2023/08/06 22:04:31;;;;;;;0.60;0.60;;;;;;;13.48;100.00;97717.78;15291348;19;20017;-55
2023/08/06 22:09:56;;;;;;;0.65;0.55;;;;;;;13.46;100.00;97704.47;15285248;19;20011;-51
2023/08/06 22:15:21;;;;;;;0.47;0.47;;;;;;;13.44;100.00;97719.22;15287295;19;20021;-51
2023/08/06 22:20:49;;;;;;;1.35;0.80;;;;;;;13.41;100.00;97712.34;15280858;19;20014;-54
2023/08/06 22:26:14;;;;;;;0.68;0.50;;;;;;;13.38;100.00;97708.13;15279965;19;20029;-54
2023/08/06 22:31:41;;;;;;;1.08;0.60;;;;;;;13.36;100.00;97706.63;15287371;19;20021;-51
2023/08/06 22:37:08;;;;;;;0.50;0.50;;;;;;;13.32;100.00;97706.19;15281788;19;20400;-56
2023/08/06 22:42:33;;;;;;;2.53;0.80;;;;;;;13.32;100.00;97710.78;15287276;19;20019;-52
2023/08/06 22:47:57;;;;;;;1.17;0.70;;;;;;;13.24;100.00;97723.41;15285433;19;20029;-56
2023/08/06 22:53:24;;;;;;;1.27;0.70;;;;;;;13.25;100.00;97740.47;14770656;19;10002509;-57
2023/08/06 22:58:49;;;;;;;0.65;0.65;;;;;;;13.22;100.00;97752.53;15277002;19;20039;-58
2023/08/06 23:04:15;;;;;;;1.23;0.60;;;;;;;13.23;100.00;97751.47;15286030;19;20007;-55
2023/08/06 23:09:43;;;;;;;1.08;0.70;;;;;;;13.25;100.00;97749.41;15282066;19;20502;-55
2023/08/06 23:15:10;;;;;;;1.10;0.50;;;;;;;13.27;100.00;97757.34;15284001;19;20351;-55
2023/08/06 23:20:35;;;;;;;1.42;0.60;;;;;;;13.28;100.00;97750.06;15281151;19;20028;-53
2023/08/06 23:26:02;;;;;;;1.17;0.50;;;;;;;13.26;100.00;97753.78;15294952;19;20020;-52
2023/08/06 23:31:27;;;;;;;1.48;0.70;;;;;;;13.25;100.00;97762.13;15288649;19;20487;-52
2023/08/06 23:36:52;;;;;;;1.38;0.60;;;;;;;13.22;100.00;97757.94;15294959;19;20010;-53
2023/08/06 23:42:19;;;;;;;1.58;0.60;;;;;;;13.20;100.00;97767.25;15299742;19;20086;-55
2023/08/06 23:47:44;;;;;;;0.52;0.50;;;;;;;13.15;100.00;97750.81;15294964;19;20022;-56
2023/08/06 23:53:08;;;;;;;1.67;0.70;;;;;;;13.13;100.00;97758.25;15297673;19;20023;-55
2023/08/06 23:58:35;;;;;;;0.80;0.73;;;;;;;13.08;100.00;97754.25;15281845;19;20019;-57
